METAR Formatted Surface Weather Observation
Issued by NWS

Current Version | Previous Version | Text Only | Print | Product List | Glossary On
Versions: 1 2 3 4 5 6 7 8 9 10 11 12 13 14 15 16 17 18 19 20 21 22 23 24 25 26 27 28 29
000
SAUS41 KBOX 241655
MTRMQE
METAR KMQE 241654Z AUTO 34007KT 300V020 17/04 A3009 RMK AO1 SLP198
T01720044



USA.gov is the U.S. government's official web portal to all federal, state and local government web resources and services.